| time (UTC) | temp C | wind direction | speed KPH | gust KPH | rain 1hr cm | rain 24hr cm | rain mn cm | humidity % | barometer mb |
| 20260508061654 | 13 | 0.0 | 0.0 | 0.00 | 0.43 | 0.00 | 82 | ||
| 20260508060630 | 13 | 0.0 | 1.6 | 0.00 | 0.43 | 0.00 | 82 | ||
| 20260508055654 | 13 | 0.0 | 0.0 | 0.00 | 0.43 | 0.00 | 83 | ||
| 20260508054650 | 12 | 0.0 | 1.6 | 0.00 | 0.43 | 0.00 | 83 | ||
| 20260508053734 | 12 | 0.0 | 1.6 | 0.00 | 0.43 | 0.00 | 83 | ||
| 20260508052630 | 12 | 0.0 | 0.0 | 0.00 | 0.43 | 0.00 | 83 | ||
| 20260508051654 | 12 | 0.0 | 0.0 | 0.00 | 0.43 | 0.00 | 82 | ||
| 20260508050630 | 12 | 0.0 | 1.6 | 0.00 | 0.43 | 0.00 | 82 | ||
| 20260508045430 | 12 | 0.0 | 1.6 | 0.00 | 0.43 | 0.00 | 82 | ||
| 20260508044455 | 12 | 0.0 | 3.2 | 0.00 | 0.43 | 0.00 | 82 | ||
| 20260508043430 | 12 | 0.0 | 0.0 | 0.00 | 0.43 | 0.00 | 83 | ||
| 20260508042455 | 12 | 0.0 | 0.0 | 0.00 | 0.43 | 0.00 | 83 | ||
| 20260508041431 | 12 | 0.0 | 0.0 | 0.00 | 0.43 | 0.00 | 83 | ||
| 20260508040454 | 12 | 0.0 | 1.6 | 0.00 | 0.43 | 0.00 | 83 | ||
| 20260508035254 | 12 | 0.0 | 0.0 | 0.00 | 0.43 | 0.00 | 83 | ||
| 20260508034230 | 12 | 0.0 | 0.0 | 0.00 | 0.43 | 0.00 | 83 | ||
| 20260508033254 | 12 | 0.0 | 0.0 | 0.00 | 0.43 | 0.00 | 83 | ||
| 20260508032230 | 12 | 0.0 | 0.0 | 0.00 | 0.43 | 0.00 | 83 | ||
| 20260508031314 | 12 | 0.0 | 0.0 | 0.00 | 0.43 | 0.00 | 83 | ||
| 20260508030231 | 12 | 0.0 | 0.0 | 0.00 | 0.43 | 0.00 | 83 | ||
| 20260508025734 | 12 | 0.0 | 0.0 | 0.00 | 0.43 | 0.00 | 83 | ||
| 20260508024631 | 13 | 0.0 | 0.0 | 0.00 | 0.43 | 0.00 | 83 | ||
| 20260508023654 | 13 | 0.0 | 0.0 | 0.00 | 0.43 | 0.00 | 84 | ||
| 20260508022630 | 13 | 0.0 | 1.6 | 0.00 | 0.43 | 0.00 | 85 | ||
| 20260508021654 | 13 | 0.0 | 1.6 | 0.00 | 0.43 | 0.00 | 85 | ||
| 20260508020630 | -17 | 0.0 | 0.0 | 0.00 | 0.43 | 0.00 | |||
| 20260508015654 | 13 | 0.0 | 1.6 | 0.00 | 0.43 | 0.00 | 85 | ||
| 20260508014630 | 13 | 0.0 | 1.6 | 0.00 | 0.43 | 0.00 | 85 | ||
| 20260508013654 | 13 | 0.0 | 0.0 | 0.00 | 0.43 | 0.00 | 86 | ||
| 20260508012630 | 13 | 0.0 | 0.0 | 0.00 | 0.43 | 0.00 | 86 | ||
| 20260508011654 | 13 | 0.0 | 1.6 | 0.00 | 0.43 | 0.00 | 87 | ||
| 20260508010631 | 13 | 0.0 | 0.0 | 0.00 | 0.43 | 0.00 | 87 | ||
| 20260508005655 | 13 | 0.0 | 0.0 | 0.00 | 0.43 | 0.00 | 88 | ||
| 20260508004630 | 13 | 0.0 | 0.0 | 0.00 | 0.43 | 0.00 | 88 | ||
| 20260508003654 | 13 | 0.0 | 0.0 | 0.00 | 0.43 | 0.00 | 89 | ||
| 20260508002630 | 13 | 0.0 | 1.6 | 0.00 | 0.43 | 0.00 | 89 | ||
| 20260508001715 | 13 | 0.0 | 3.2 | 0.00 | 0.43 | 0.00 | 89 | ||
| 20260508000630 | -17 | 0.0 | 0.0 | 0.00 | 0.43 | 0.00 | |||
| 20260507234630 | 13 | 0.0 | 0.0 | 0.00 | 0.43 | 0.00 | 88 | ||
| 20260507233654 | 13 | 0.0 | 0.0 | 0.00 | 0.43 | 0.00 | 88 | ||
| 20260507232630 | 13 | 0.0 | 0.0 | 0.00 | 0.43 | 0.00 | 88 | ||
| 20260507231655 | 13 | 0.0 | 0.0 | 0.00 | 0.43 | 0.00 | 88 | ||
| 20260507230630 | 13 | 0.0 | 1.6 | 0.00 | 0.43 | 0.00 | 88 | ||
| 20260507225654 | 14 | 0.0 | 1.6 | 0.00 | 0.43 | 0.00 | 88 | ||
| 20260507224630 | 14 | 0.0 | 0.0 | 0.00 | 0.43 | 0.00 | 88 | ||
| 20260507223714 | 14 | 0.0 | 0.0 | 0.00 | 0.43 | 0.00 | 88 | ||
| 20260507222631 | 14 | 0.0 | 0.0 | 0.00 | 0.43 | 0.00 | 88 | ||
| 20260507221714 | 14 | 0.0 | 1.6 | 0.00 | 0.43 | 0.00 | 88 | ||
| 20260507220630 | -17 | 0.0 | 0.0 | 0.00 | 0.43 | 0.00 | |||
| 20260507215654 | 14 | 0.0 | 0.0 | 0.00 | 0.43 | 0.43 | 89 | ||
| 20260507214630 | 14 | 0.0 | 1.6 | 0.00 | 0.43 | 0.43 | 89 | ||
| 20260507213654 | 14 | 0.0 | 0.0 | 0.00 | 0.43 | 0.43 | 89 | ||
| 20260507212650 | 14 | 0.0 | 0.0 | 0.00 | 0.43 | 0.43 | 88 | ||
| 20260507211654 | 15 | 0.0 | 0.0 | 0.00 | 0.43 | 0.43 | 88 | ||
| 20260507210631 | -17 | 0.0 | 0.0 | 0.00 | 0.43 | 0.43 | |||
| 20260507205654 | 15 | 0.0 | 0.0 | 0.00 | 0.43 | 0.43 | 88 | ||
| 20260507204631 | 15 | 0.0 | 0.0 | 0.00 | 0.43 | 0.43 | 88 | ||
| 20260507203656 | 14 | 0.0 | 0.0 | 0.00 | 0.43 | 0.43 | 89 | ||
| 20260507202630 | 14 | 0.0 | 0.0 | 0.00 | 0.43 | 0.43 | 89 | ||
| 20260507201715 | 14 | 0.0 | 0.0 | 0.03 | 0.43 | 0.43 | 88 | ||
| 20260507200631 | 14 | 0.0 | 0.0 | 0.03 | 0.43 | 0.43 | 88 | ||
| 20260507195654 | 14 | 0.0 | 0.0 | 0.05 | 0.43 | 0.43 | 87 | ||
| 20260507194631 | 14 | 0.0 | 0.0 | 0.10 | 0.43 | 0.43 | 87 | ||
| 20260507193654 | 14 | 0.0 | 0.0 | 0.15 | 0.43 | 0.43 | 87 | ||
| 20260507192631 | 14 | 0.0 | 0.0 | 0.18 | 0.43 | 0.43 | 87 | ||
| 20260507191654 | 14 | 0.0 | 0.0 | 0.18 | 0.38 | 0.38 | 87 | ||
| 20260507190631 | 14 | 0.0 | 1.6 | 0.23 | 0.38 | 0.38 | 86 | ||
| 20260507185714 | 14 | 0.0 | 0.0 | 0.28 | 0.36 | 0.36 | 85 | ||
| 20260507184631 | 14 | 0.0 | 1.6 | 0.33 | 0.33 | 0.33 | 84 | ||
| 20260507183655 | 14 | 0.0 | 0.0 | 0.28 | 0.28 | 0.28 | 83 | ||
| 20260507182630 | 14 | 0.0 | 0.0 | 0.23 | 0.23 | 0.23 | 82 | ||
| 20260507181655 | 15 | 0.0 | 0.0 | 0.20 | 0.20 | 0.20 | 80 | ||
| 20260507180631 | 15 | 0.0 | 1.6 | 0.15 | 0.15 | 0.15 | 76 | ||
| 20260507175714 | 16 | 0.0 | 1.6 | 0.10 | 0.10 | 0.10 | 71 | ||
| 20260507174632 | 17 | 180 | 1.6 | 3.2 | 0.00 | 0.00 | 0.00 | 63 | |
| 20260507173655 | 18 | 180 | 1.6 | 6.4 | 0.00 | 0.00 | 0.00 | 59 | |
| 20260507172630 | 19 | 180 | 0.0 | 3.2 | 0.00 | 0.00 | 0.00 | 66 | |
| 20260507171716 | 20 | 0.0 | 0.0 | 0.00 | 0.00 | 0.00 | 66 | ||
| 20260507170631 | 20 | 0.0 | 1.6 | 0.00 | 0.00 | 0.00 | 65 | ||
| 20260507165735 | 20 | 0.0 | 1.6 | 0.00 | 0.00 | 0.00 | 64 | ||
| 20260507164631 | 20 | 0.0 | 1.6 | 0.00 | 0.00 | 0.00 | 64 | ||
| 20260507163655 | 20 | 0.0 | 0.0 | 0.00 | 0.00 | 0.00 | 65 | ||
| 20260507162631 | 20 | 0.0 | 1.6 | 0.00 | 0.00 | 0.00 | 65 | ||
| 20260507161655 | 20 | 0.0 | 1.6 | 0.00 | 0.00 | 0.00 | 64 | ||
| 20260507160632 | 20 | 0.0 | 1.6 | 0.00 | 0.00 | 0.00 | 64 | ||
| 20260507155655 | 20 | 225 | 0.0 | 3.2 | 0.00 | 0.00 | 0.00 | 63 | |
| 20260507154631 | 20 | 0.0 | 1.6 | 0.00 | 0.00 | 0.00 | 63 | ||
| 20260507153715 | 20 | 0.0 | 1.6 | 0.00 | 0.00 | 0.00 | 63 | ||
| 20260507152651 | 20 | 0.0 | 1.6 | 0.00 | 0.00 | 0.00 | 63 | ||
| 20260507151654 | 20 | 0.0 | 0.0 | 0.00 | 0.00 | 0.00 | 64 | ||
| 20260507150631 | 21 | 0.0 | 3.2 | 0.00 | 0.00 | 0.00 | 64 | ||
| 20260507145655 | 21 | 0.0 | 1.6 | 0.00 | 0.00 | 0.00 | 65 | ||
| 20260507144651 | 21 | 0.0 | 1.6 | 0.00 | 0.00 | 0.00 | 65 | ||
| 20260507143655 | 21 | 0.0 | 0.0 | 0.00 | 0.00 | 0.00 | 66 | ||
| 20260507142631 | 21 | 0.0 | 1.6 | 0.00 | 0.00 | 0.00 | 65 | ||
| 20260507141655 | 21 | 0.0 | 1.6 | 0.00 | 0.00 | 0.00 | 63 | ||
| 20260507140631 | 21 | 0.0 | 1.6 | 0.00 | 0.00 | 0.00 | 62 | ||
| 20260507135654 | 21 | 0.0 | 1.6 | 0.00 | 0.00 | 0.00 | 62 | ||
| 20260507134631 | 21 | 0.0 | 3.2 | 0.00 | 0.00 | 0.00 | 61 | ||
| 20260507133655 | 22 | 0.0 | 1.6 | 0.00 | 0.00 | 0.00 | 59 | ||
| 20260507132631 | 22 | 0.0 | 1.6 | 0.00 | 0.00 | 0.00 | 54 | ||
| 20260507131655 | 23 | 315 | 0.0 | 3.2 | 0.00 | 0.00 | 0.00 | 52 | |
| 20260507130632 | 23 | 0.0 | 3.2 | 0.00 | 0.00 | 0.00 | 51 | ||
| 20260507125835 | 23 | 0.0 | 1.6 | 0.00 | 0.00 | 0.00 | 54 | ||
| 20260507124631 | 23 | 0.0 | 1.6 | 0.00 | 0.00 | 0.00 | 53 | ||
| 20260507123716 | 22 | 0.0 | 1.6 | 0.00 | 0.00 | 0.00 | 61 | ||
| 20260507122631 | 20 | 0.0 | 1.6 | 0.00 | 0.00 | 0.00 | 66 | ||
| 20260507121656 | 20 | 0.0 | 3.2 | 0.00 | 0.00 | 0.00 | 70 | ||
| 20260507120631 | 19 | 0.0 | 1.6 | 0.00 | 0.00 | 0.00 | 70 | ||
| 20260507115316 | 19 | 0.0 | 1.6 | 0.00 | 0.00 | 0.00 | 71 | ||
| 20260507114232 | 18 | 0.0 | 0.0 | 0.00 | 0.00 | 0.00 | 71 | ||
| 20260507113255 | 18 | 0.0 | 1.6 | 0.00 | 0.00 | 0.00 | 71 | ||
| 20260507112231 | 18 | 0.0 | 1.6 | 0.00 | 0.00 | 0.00 | 71 | ||
| 20260507111255 | 19 | 0.0 | 1.6 | 0.00 | 0.00 | 0.00 | 70 | ||
| 20260507110231 | 19 | 0.0 | 1.6 | 0.00 | 0.00 | 0.00 | 69 | ||
| 20260507105656 | 19 | 315 | 1.6 | 3.2 | 0.00 | 0.00 | 0.00 | 66 | |
| 20260507104631 | 20 | 90 | 0.0 | 3.2 | 0.00 | 0.00 | 0.00 | 62 | |
| 20260507103656 | 20 | 0.0 | 1.6 | 0.00 | 0.00 | 0.00 | 65 | ||
| 20260507102631 | 20 | 0.0 | 1.6 | 0.00 | 0.00 | 0.00 | 69 | ||
| 20260507101655 | 20 | 0.0 | 3.2 | 0.00 | 0.00 | 0.00 | 68 | ||
| 20260507100631 | -17 | 0.0 | 0.0 | 0.00 | 0.00 | 0.00 | |||
| 20260507095655 | 20 | 360 | 1.6 | 4.8 | 0.00 | 0.00 | 0.00 | 66 | |
| 20260507094631 | 19 | 0.0 | 1.6 | 0.00 | 0.00 | 0.00 | 66 | ||
| 20260507093715 | 19 | 0.0 | 1.6 | 0.00 | 0.00 | 0.00 | 66 | ||
| 20260507092632 | 19 | 113 | 0.0 | 3.2 | 0.00 | 0.00 | 0.00 | 66 | |
| 20260507091655 | 19 | 0.0 | 1.6 | 0.00 | 0.00 | 0.00 | 65 | ||
| 20260507090631 | 18 | 0.0 | 1.6 | 0.00 | 0.00 | 0.00 | 67 | ||
| 20260507085655 | 19 | 225 | 0.0 | 3.2 | 0.00 | 0.00 | 0.00 | 68 | |
| 20260507084632 | 18 | 0.0 | 1.6 | 0.00 | 0.00 | 0.00 | 70 | ||
| 20260507083735 | 18 | 0.0 | 1.6 | 0.00 | 0.00 | 0.00 | 70 | ||
| 20260507082651 | 18 | 0.0 | 1.6 | 0.00 | 0.00 | 0.00 | 70 | ||
| 20260507081655 | 18 | 0.0 | 0.0 | 0.00 | 0.00 | 0.00 | 69 | ||
| 20260507080631 | -17 | 0.0 | 0.0 | 0.00 | 0.00 | 0.00 | |||
| 20260507075655 | 17 | 0.0 | 1.6 | 0.00 | 0.00 | 0.00 | 64 | ||
| 20260507074632 | 17 | 0.0 | 1.6 | 0.00 | 0.00 | 0.00 | 64 | ||
| 20260507073656 | 17 | 0.0 | 1.6 | 0.00 | 0.00 | 0.00 | 68 | ||
| 20260507072631 | 17 | 0.0 | 1.6 | 0.00 | 0.00 | 0.00 | 66 | ||
| 20260507071655 | 17 | 0.0 | 1.6 | 0.00 | 0.00 | 0.00 | 65 | ||
| 20260507070631 | 16 | 0.0 | 1.6 | 0.00 | 0.00 | 0.00 | 64 | ||
| 20260507065655 | 16 | 0.0 | 0.0 | 0.00 | 0.00 | 0.00 | 66 | ||
| 20260507064631 | 16 | 0.0 | 0.0 | 0.00 | 0.00 | 0.00 | 69 | ||
| 20260507063716 | 15 | 0.0 | 1.6 | 0.00 | 0.00 | 0.00 | 70 | ||
| 20260507062631 | 15 | 0.0 | 0.0 | 0.00 | 0.00 | 0.00 | 71 |